sensor_id;sensor_type;location;lat;lon;timestamp;temperature;humidity
12926;DHT22;6529;50.566;9.774;2023-12-20T00:01:17;3.50;99.90
12926;DHT22;6529;50.566;9.774;2023-12-20T00:03:42;3.60;99.90
12926;DHT22;6529;50.566;9.774;2023-12-20T00:06:08;3.60;99.90
12926;DHT22;6529;50.566;9.774;2023-12-20T00:08:33;3.60;99.90
12926;DHT22;6529;50.566;9.774;2023-12-20T00:10:59;3.60;99.90
12926;DHT22;6529;50.566;9.774;2023-12-20T00:13:25;3.70;99.90
12926;DHT22;6529;50.566;9.774;2023-12-20T00:15:50;3.60;99.90
12926;DHT22;6529;50.566;9.774;2023-12-20T00:18:16;3.70;99.90
12926;DHT22;6529;50.566;9.774;2023-12-20T00:20:41;3.70;99.90
12926;DHT22;6529;50.566;9.774;2023-12-20T00:23:07;3.70;99.90
12926;DHT22;6529;50.566;9.774;2023-12-20T00:25:33;3.70;99.90
12926;DHT22;6529;50.566;9.774;2023-12-20T00:28:00;3.70;99.90
12926;DHT22;6529;50.566;9.774;2023-12-20T00:30:25;3.70;99.90
12926;DHT22;6529;50.566;9.774;2023-12-20T00:32:51;3.80;99.90
12926;DHT22;6529;50.566;9.774;2023-12-20T00:35:16;3.70;99.90
12926;DHT22;6529;50.566;9.774;2023-12-20T00:37:45;3.80;99.90
12926;DHT22;6529;50.566;9.774;2023-12-20T00:40:11;3.80;99.90
12926;DHT22;6529;50.566;9.774;2023-12-20T00:42:36;3.80;99.90
12926;DHT22;6529;50.566;9.774;2023-12-20T00:45:02;3.80;99.90
12926;DHT22;6529;50.566;9.774;2023-12-20T00:47:30;3.80;99.90
12926;DHT22;6529;50.566;9.774;2023-12-20T00:49:56;3.80;99.90
12926;DHT22;6529;50.566;9.774;2023-12-20T00:52:21;3.80;99.90
12926;DHT22;6529;50.566;9.774;2023-12-20T00:54:48;3.80;99.90
12926;DHT22;6529;50.566;9.774;2023-12-20T00:57:14;3.80;99.90
12926;DHT22;6529;50.566;9.774;2023-12-20T00:59:39;3.80;99.90
12926;DHT22;6529;50.566;9.774;2023-12-20T01:02:05;3.80;99.90
12926;DHT22;6529;50.566;9.774;2023-12-20T01:04:30;3.80;99.90
12926;DHT22;6529;50.566;9.774;2023-12-20T01:06:56;3.80;99.90
12926;DHT22;6529;50.566;9.774;2023-12-20T01:09:21;3.90;99.90
12926;DHT22;6529;50.566;9.774;2023-12-20T01:11:52;3.90;99.90
12926;DHT22;6529;50.566;9.774;2023-12-20T01:14:18;3.80;99.90
12926;DHT22;6529;50.566;9.774;2023-12-20T01:16:44;3.80;99.90
12926;DHT22;6529;50.566;9.774;2023-12-20T01:19:09;3.90;99.90
12926;DHT22;6529;50.566;9.774;2023-12-20T01:21:35;3.80;99.90
12926;DHT22;6529;50.566;9.774;2023-12-20T01:24:01;3.90;99.90
12926;DHT22;6529;50.566;9.774;2023-12-20T01:26:26;3.90;99.90
12926;DHT22;6529;50.566;9.774;2023-12-20T01:28:52;3.90;99.90
12926;DHT22;6529;50.566;9.774;2023-12-20T01:31:17;3.90;99.90
12926;DHT22;6529;50.566;9.774;2023-12-20T01:33:43;3.90;99.90
12926;DHT22;6529;50.566;9.774;2023-12-20T01:36:08;3.90;99.90
12926;DHT22;6529;50.566;9.774;2023-12-20T01:38:34;3.80;99.90
12926;DHT22;6529;50.566;9.774;2023-12-20T01:40:59;3.90;99.90
12926;DHT22;6529;50.566;9.774;2023-12-20T01:43:25;3.90;99.90
12926;DHT22;6529;50.566;9.774;2023-12-20T01:45:51;3.90;99.90
12926;DHT22;6529;50.566;9.774;2023-12-20T01:48:18;3.90;99.90
12926;DHT22;6529;50.566;9.774;2023-12-20T01:50:45;3.90;99.90
12926;DHT22;6529;50.566;9.774;2023-12-20T01:53:12;3.90;99.90
12926;DHT22;6529;50.566;9.774;2023-12-20T01:55:39;3.90;99.90
12926;DHT22;6529;50.566;9.774;2023-12-20T01:58:06;3.90;99.90
12926;DHT22;6529;50.566;9.774;2023-12-20T02:00:33;3.90;99.90
12926;DHT22;6529;50.566;9.774;2023-12-20T02:03:01;3.90;99.90
12926;DHT22;6529;50.566;9.774;2023-12-20T02:05:27;4.00;99.90
12926;DHT22;6529;50.566;9.774;2023-12-20T02:07:53;4.00;99.90
12926;DHT22;6529;50.566;9.774;2023-12-20T02:10:19;4.00;99.90
12926;DHT22;6529;50.566;9.774;2023-12-20T02:12:44;4.00;99.90
12926;DHT22;6529;50.566;9.774;2023-12-20T02:15:10;4.00;99.90
12926;DHT22;6529;50.566;9.774;2023-12-20T02:17:36;4.00;99.90
12926;DHT22;6529;50.566;9.774;2023-12-20T02:20:03;4.00;99.90
12926;DHT22;6529;50.566;9.774;2023-12-20T02:22:29;4.00;99.90
12926;DHT22;6529;50.566;9.774;2023-12-20T02:24:55;4.00;99.90
12926;DHT22;6529;50.566;9.774;2023-12-20T02:27:22;4.00;99.90
12926;DHT22;6529;50.566;9.774;2023-12-20T02:29:48;4.00;99.90
12926;DHT22;6529;50.566;9.774;2023-12-20T02:32:15;3.90;99.90
12926;DHT22;6529;50.566;9.774;2023-12-20T02:34:41;4.00;99.90
12926;DHT22;6529;50.566;9.774;2023-12-20T02:37:06;3.90;99.90
12926;DHT22;6529;50.566;9.774;2023-12-20T02:39:32;3.90;99.90
12926;DHT22;6529;50.566;9.774;2023-12-20T02:41:58;4.00;99.90
12926;DHT22;6529;50.566;9.774;2023-12-20T02:44:24;4.00;99.90
12926;DHT22;6529;50.566;9.774;2023-12-20T02:46:50;4.00;99.90
12926;DHT22;6529;50.566;9.774;2023-12-20T02:49:15;4.00;99.90
12926;DHT22;6529;50.566;9.774;2023-12-20T02:51:41;4.00;99.90
12926;DHT22;6529;50.566;9.774;2023-12-20T02:54:06;4.00;99.90
12926;DHT22;6529;50.566;9.774;2023-12-20T02:56:33;4.00;99.90
12926;DHT22;6529;50.566;9.774;2023-12-20T02:58:58;4.00;99.90
12926;DHT22;6529;50.566;9.774;2023-12-20T03:01:24;4.00;99.90
12926;DHT22;6529;50.566;9.774;2023-12-20T03:03:50;4.00;99.90
12926;DHT22;6529;50.566;9.774;2023-12-20T03:06:19;4.00;99.90
12926;DHT22;6529;50.566;9.774;2023-12-20T03:08:45;4.00;99.90
12926;DHT22;6529;50.566;9.774;2023-12-20T03:11:11;4.00;99.90
12926;DHT22;6529;50.566;9.774;2023-12-20T03:13:36;4.10;99.90
12926;DHT22;6529;50.566;9.774;2023-12-20T03:16:11;4.10;99.90
12926;DHT22;6529;50.566;9.774;2023-12-20T03:18:37;4.00;99.90
12926;DHT22;6529;50.566;9.774;2023-12-20T03:21:04;4.00;99.90
12926;DHT22;6529;50.566;9.774;2023-12-20T03:23:29;4.00;99.90
12926;DHT22;6529;50.566;9.774;2023-12-20T03:25:56;4.00;99.90
12926;DHT22;6529;50.566;9.774;2023-12-20T03:28:22;4.10;99.90
12926;DHT22;6529;50.566;9.774;2023-12-20T03:30:48;4.10;99.90
12926;DHT22;6529;50.566;9.774;2023-12-20T03:33:14;4.10;99.90
12926;DHT22;6529;50.566;9.774;2023-12-20T03:35:39;4.20;99.90
12926;DHT22;6529;50.566;9.774;2023-12-20T03:38:05;4.20;99.90
12926;DHT22;6529;50.566;9.774;2023-12-20T03:40:30;4.20;99.90
12926;DHT22;6529;50.566;9.774;2023-12-20T03:42:56;4.20;99.90
12926;DHT22;6529;50.566;9.774;2023-12-20T03:45:21;4.20;99.90
12926;DHT22;6529;50.566;9.774;2023-12-20T03:47:47;4.20;99.90
12926;DHT22;6529;50.566;9.774;2023-12-20T03:50:13;4.30;99.90
12926;DHT22;6529;50.566;9.774;2023-12-20T03:52:38;4.30;99.90
12926;DHT22;6529;50.566;9.774;2023-12-20T03:55:05;4.30;99.90
12926;DHT22;6529;50.566;9.774;2023-12-20T03:57:31;4.30;99.90
12926;DHT22;6529;50.566;9.774;2023-12-20T03:59:56;4.30;99.90
12926;DHT22;6529;50.566;9.774;2023-12-20T04:02:22;4.20;99.90
12926;DHT22;6529;50.566;9.774;2023-12-20T04:04:47;4.30;99.90
12926;DHT22;6529;50.566;9.774;2023-12-20T04:07:13;4.20;99.90
12926;DHT22;6529;50.566;9.774;2023-12-20T04:09:40;4.20;99.90
12926;DHT22;6529;50.566;9.774;2023-12-20T04:12:06;4.20;99.90
12926;DHT22;6529;50.566;9.774;2023-12-20T04:14:32;4.20;99.90
12926;DHT22;6529;50.566;9.774;2023-12-20T04:16:58;4.20;99.90
12926;DHT22;6529;50.566;9.774;2023-12-20T04:19:23;4.20;99.90
12926;DHT22;6529;50.566;9.774;2023-12-20T04:21:49;4.20;99.90
12926;DHT22;6529;50.566;9.774;2023-12-20T04:24:14;4.20;99.90
12926;DHT22;6529;50.566;9.774;2023-12-20T04:26:40;4.20;99.90
12926;DHT22;6529;50.566;9.774;2023-12-20T04:29:05;4.20;99.90
12926;DHT22;6529;50.566;9.774;2023-12-20T04:31:31;4.20;99.90
12926;DHT22;6529;50.566;9.774;2023-12-20T04:33:56;4.30;99.90
12926;DHT22;6529;50.566;9.774;2023-12-20T04:36:22;4.40;99.90
12926;DHT22;6529;50.566;9.774;2023-12-20T04:38:48;4.40;99.90
12926;DHT22;6529;50.566;9.774;2023-12-20T04:41:14;4.50;99.90
12926;DHT22;6529;50.566;9.774;2023-12-20T04:43:44;4.40;99.90
12926;DHT22;6529;50.566;9.774;2023-12-20T04:46:09;4.40;99.90
12926;DHT22;6529;50.566;9.774;2023-12-20T04:48:35;4.40;99.90
12926;DHT22;6529;50.566;9.774;2023-12-20T04:51:01;4.40;99.90
12926;DHT22;6529;50.566;9.774;2023-12-20T04:53:26;4.50;99.90
12926;DHT22;6529;50.566;9.774;2023-12-20T04:55:52;4.40;99.90
12926;DHT22;6529;50.566;9.774;2023-12-20T04:58:19;4.30;99.90
12926;DHT22;6529;50.566;9.774;2023-12-20T05:00:44;4.30;99.90
12926;DHT22;6529;50.566;9.774;2023-12-20T05:03:10;4.30;99.90
12926;DHT22;6529;50.566;9.774;2023-12-20T05:05:35;4.20;99.90
12926;DHT22;6529;50.566;9.774;2023-12-20T05:08:01;4.30;99.90
12926;DHT22;6529;50.566;9.774;2023-12-20T05:10:26;4.30;99.90
12926;DHT22;6529;50.566;9.774;2023-12-20T05:12:53;4.30;99.90
12926;DHT22;6529;50.566;9.774;2023-12-20T05:15:18;4.30;99.90
12926;DHT22;6529;50.566;9.774;2023-12-20T05:17:44;4.40;99.90
12926;DHT22;6529;50.566;9.774;2023-12-20T05:20:10;4.40;99.90
12926;DHT22;6529;50.566;9.774;2023-12-20T05:22:35;4.40;99.90
12926;DHT22;6529;50.566;9.774;2023-12-20T05:25:01;4.40;99.90
12926;DHT22;6529;50.566;9.774;2023-12-20T05:27:27;4.40;99.90
12926;DHT22;6529;50.566;9.774;2023-12-20T05:29:52;4.30;99.90
12926;DHT22;6529;50.566;9.774;2023-12-20T05:32:18;4.30;99.90
12926;DHT22;6529;50.566;9.774;2023-12-20T05:34:44;4.50;99.90
12926;DHT22;6529;50.566;9.774;2023-12-20T05:37:09;4.60;99.90
12926;DHT22;6529;50.566;9.774;2023-12-20T05:39:35;4.70;99.90
12926;DHT22;6529;50.566;9.774;2023-12-20T05:42:00;4.80;99.90
12926;DHT22;6529;50.566;9.774;2023-12-20T05:44:26;5.00;99.90
12926;DHT22;6529;50.566;9.774;2023-12-20T05:46:51;4.80;99.90
12926;DHT22;6529;50.566;9.774;2023-12-20T05:49:17;4.50;99.90
12926;DHT22;6529;50.566;9.774;2023-12-20T05:51:42;4.30;99.90
12926;DHT22;6529;50.566;9.774;2023-12-20T05:54:09;4.20;99.90
12926;DHT22;6529;50.566;9.774;2023-12-20T05:56:34;4.10;99.90
12926;DHT22;6529;50.566;9.774;2023-12-20T05:59:00;4.00;99.90
12926;DHT22;6529;50.566;9.774;2023-12-20T06:01:26;4.00;99.90
12926;DHT22;6529;50.566;9.774;2023-12-20T06:03:51;3.90;99.90
12926;DHT22;6529;50.566;9.774;2023-12-20T06:06:17;3.90;99.90
12926;DHT22;6529;50.566;9.774;2023-12-20T06:08:43;3.90;99.90
12926;DHT22;6529;50.566;9.774;2023-12-20T06:11:09;3.90;99.90
12926;DHT22;6529;50.566;9.774;2023-12-20T06:13:34;4.00;99.90
12926;DHT22;6529;50.566;9.774;2023-12-20T06:16:01;4.00;99.90
12926;DHT22;6529;50.566;9.774;2023-12-20T06:18:26;4.00;99.90
12926;DHT22;6529;50.566;9.774;2023-12-20T06:20:52;4.00;99.90
12926;DHT22;6529;50.566;9.774;2023-12-20T06:23:17;4.00;99.90
12926;DHT22;6529;50.566;9.774;2023-12-20T06:25:44;4.00;99.90
12926;DHT22;6529;50.566;9.774;2023-12-20T06:28:09;4.00;99.90
12926;DHT22;6529;50.566;9.774;2023-12-20T06:30:35;4.00;99.90
12926;DHT22;6529;50.566;9.774;2023-12-20T06:33:01;3.90;99.90
12926;DHT22;6529;50.566;9.774;2023-12-20T06:35:26;4.00;99.90
12926;DHT22;6529;50.566;9.774;2023-12-20T06:37:52;3.90;99.90
12926;DHT22;6529;50.566;9.774;2023-12-20T06:40:18;3.90;99.90
12926;DHT22;6529;50.566;9.774;2023-12-20T06:42:44;3.90;99.90
12926;DHT22;6529;50.566;9.774;2023-12-20T06:45:10;3.90;99.90
12926;DHT22;6529;50.566;9.774;2023-12-20T06:47:35;3.80;99.90
12926;DHT22;6529;50.566;9.774;2023-12-20T06:50:01;3.80;99.90
12926;DHT22;6529;50.566;9.774;2023-12-20T06:52:27;3.80;99.90
12926;DHT22;6529;50.566;9.774;2023-12-20T06:54:52;3.80;99.90
12926;DHT22;6529;50.566;9.774;2023-12-20T06:57:18;3.80;99.90
12926;DHT22;6529;50.566;9.774;2023-12-20T06:59:45;3.80;99.90
12926;DHT22;6529;50.566;9.774;2023-12-20T07:02:11;3.80;99.90
12926;DHT22;6529;50.566;9.774;2023-12-20T07:04:40;3.80;99.90
12926;DHT22;6529;50.566;9.774;2023-12-20T07:07:06;3.80;99.90
12926;DHT22;6529;50.566;9.774;2023-12-20T07:09:33;3.80;99.90
12926;DHT22;6529;50.566;9.774;2023-12-20T07:11:58;3.80;99.90
12926;DHT22;6529;50.566;9.774;2023-12-20T07:14:24;3.80;99.90
12926;DHT22;6529;50.566;9.774;2023-12-20T07:16:49;3.80;99.90
12926;DHT22;6529;50.566;9.774;2023-12-20T07:19:15;3.80;99.90
12926;DHT22;6529;50.566;9.774;2023-12-20T07:21:40;3.80;99.90
12926;DHT22;6529;50.566;9.774;2023-12-20T07:24:06;3.80;99.90
12926;DHT22;6529;50.566;9.774;2023-12-20T07:26:32;3.80;99.90
12926;DHT22;6529;50.566;9.774;2023-12-20T07:28:57;3.80;99.90
12926;DHT22;6529;50.566;9.774;2023-12-20T07:31:24;3.70;99.90
12926;DHT22;6529;50.566;9.774;2023-12-20T07:33:49;3.70;99.90
12926;DHT22;6529;50.566;9.774;2023-12-20T07:36:15;3.80;99.90
12926;DHT22;6529;50.566;9.774;2023-12-20T07:38:40;3.80;99.90
12926;DHT22;6529;50.566;9.774;2023-12-20T07:41:09;3.90;99.90
12926;DHT22;6529;50.566;9.774;2023-12-20T07:43:35;3.90;99.90
12926;DHT22;6529;50.566;9.774;2023-12-20T07:46:05;3.80;99.90
12926;DHT22;6529;50.566;9.774;2023-12-20T07:48:31;3.90;99.90
12926;DHT22;6529;50.566;9.774;2023-12-20T07:50:57;3.90;99.90
12926;DHT22;6529;50.566;9.774;2023-12-20T07:53:22;4.00;99.90
12926;DHT22;6529;50.566;9.774;2023-12-20T07:55:48;4.00;99.90
12926;DHT22;6529;50.566;9.774;2023-12-20T07:58:13;4.00;99.90
12926;DHT22;6529;50.566;9.774;2023-12-20T08:00:39;4.00;99.90
12926;DHT22;6529;50.566;9.774;2023-12-20T08:03:05;4.00;99.90
12926;DHT22;6529;50.566;9.774;2023-12-20T08:05:30;4.00;99.90
12926;DHT22;6529;50.566;9.774;2023-12-20T08:07:56;4.00;99.90
12926;DHT22;6529;50.566;9.774;2023-12-20T08:10:21;4.00;99.90
12926;DHT22;6529;50.566;9.774;2023-12-20T08:12:47;4.00;99.90
12926;DHT22;6529;50.566;9.774;2023-12-20T08:15:12;4.00;99.90
12926;DHT22;6529;50.566;9.774;2023-12-20T08:17:38;4.00;99.90
12926;DHT22;6529;50.566;9.774;2023-12-20T08:20:04;4.10;99.90
12926;DHT22;6529;50.566;9.774;2023-12-20T08:22:30;4.10;99.90
12926;DHT22;6529;50.566;9.774;2023-12-20T08:24:55;4.00;99.90
12926;DHT22;6529;50.566;9.774;2023-12-20T08:27:21;4.10;99.90
12926;DHT22;6529;50.566;9.774;2023-12-20T08:29:46;4.10;99.90
12926;DHT22;6529;50.566;9.774;2023-12-20T08:32:12;4.10;99.90
12926;DHT22;6529;50.566;9.774;2023-12-20T08:34:38;4.10;99.90
12926;DHT22;6529;50.566;9.774;2023-12-20T08:37:03;4.20;99.90
12926;DHT22;6529;50.566;9.774;2023-12-20T08:39:29;4.20;99.90
12926;DHT22;6529;50.566;9.774;2023-12-20T08:41:55;4.20;99.90
12926;DHT22;6529;50.566;9.774;2023-12-20T08:44:20;4.20;99.90
12926;DHT22;6529;50.566;9.774;2023-12-20T08:46:47;4.20;99.90
12926;DHT22;6529;50.566;9.774;2023-12-20T08:49:13;4.20;99.90
12926;DHT22;6529;50.566;9.774;2023-12-20T08:51:39;4.20;99.90
12926;DHT22;6529;50.566;9.774;2023-12-20T08:54:06;4.20;99.90
12926;DHT22;6529;50.566;9.774;2023-12-20T08:56:33;4.20;99.90
12926;DHT22;6529;50.566;9.774;2023-12-20T08:58:59;4.20;99.90
12926;DHT22;6529;50.566;9.774;2023-12-20T09:01:24;4.20;99.90
12926;DHT22;6529;50.566;9.774;2023-12-20T09:03:50;4.30;99.90
12926;DHT22;6529;50.566;9.774;2023-12-20T09:06:15;4.30;99.90
12926;DHT22;6529;50.566;9.774;2023-12-20T09:08:41;4.30;99.90
12926;DHT22;6529;50.566;9.774;2023-12-20T09:11:07;4.30;99.90
12926;DHT22;6529;50.566;9.774;2023-12-20T09:13:32;4.30;99.90
12926;DHT22;6529;50.566;9.774;2023-12-20T09:15:58;4.30;99.90
12926;DHT22;6529;50.566;9.774;2023-12-20T09:18:24;4.30;99.90
12926;DHT22;6529;50.566;9.774;2023-12-20T09:20:50;4.30;99.90
12926;DHT22;6529;50.566;9.774;2023-12-20T09:23:15;4.30;99.90
12926;DHT22;6529;50.566;9.774;2023-12-20T09:25:41;4.30;99.90
12926;DHT22;6529;50.566;9.774;2023-12-20T09:28:06;4.40;99.90
12926;DHT22;6529;50.566;9.774;2023-12-20T09:30:32;4.30;99.90
12926;DHT22;6529;50.566;9.774;2023-12-20T09:32:58;4.40;99.90
12926;DHT22;6529;50.566;9.774;2023-12-20T09:35:23;4.40;99.90
12926;DHT22;6529;50.566;9.774;2023-12-20T09:37:49;4.50;99.90
12926;DHT22;6529;50.566;9.774;2023-12-20T09:40:18;4.50;99.90
12926;DHT22;6529;50.566;9.774;2023-12-20T09:43:08;4.50;99.90
12926;DHT22;6529;50.566;9.774;2023-12-20T09:45:35;4.60;99.90
12926;DHT22;6529;50.566;9.774;2023-12-20T09:48:01;4.60;99.90
12926;DHT22;6529;50.566;9.774;2023-12-20T09:50:30;4.60;99.90
12926;DHT22;6529;50.566;9.774;2023-12-20T09:52:58;4.60;99.90
12926;DHT22;6529;50.566;9.774;2023-12-20T09:55:25;4.60;99.90
12926;DHT22;6529;50.566;9.774;2023-12-20T09:57:50;4.50;99.90
12926;DHT22;6529;50.566;9.774;2023-12-20T10:00:17;4.60;99.90
12926;DHT22;6529;50.566;9.774;2023-12-20T10:02:50;4.60;99.90
12926;DHT22;6529;50.566;9.774;2023-12-20T10:05:17;4.50;99.90
12926;DHT22;6529;50.566;9.774;2023-12-20T10:07:46;4.50;99.90
12926;DHT22;6529;50.566;9.774;2023-12-20T10:10:13;4.50;99.90
12926;DHT22;6529;50.566;9.774;2023-12-20T10:12:39;4.50;99.90
12926;DHT22;6529;50.566;9.774;2023-12-20T10:15:05;4.60;99.90
12926;DHT22;6529;50.566;9.774;2023-12-20T10:17:31;4.60;99.90
12926;DHT22;6529;50.566;9.774;2023-12-20T10:19:57;4.60;99.90
12926;DHT22;6529;50.566;9.774;2023-12-20T10:22:23;4.60;99.90
12926;DHT22;6529;50.566;9.774;2023-12-20T10:24:49;4.60;99.90
12926;DHT22;6529;50.566;9.774;2023-12-20T10:27:14;4.50;99.90
12926;DHT22;6529;50.566;9.774;2023-12-20T10:29:44;4.60;99.90
12926;DHT22;6529;50.566;9.774;2023-12-20T10:32:24;4.60;99.90
12926;DHT22;6529;50.566;9.774;2023-12-20T10:34:50;4.70;99.90
12926;DHT22;6529;50.566;9.774;2023-12-20T10:37:16;4.80;99.90
12926;DHT22;6529;50.566;9.774;2023-12-20T10:39:43;4.80;99.90
12926;DHT22;6529;50.566;9.774;2023-12-20T10:42:12;4.80;99.90
12926;DHT22;6529;50.566;9.774;2023-12-20T10:44:38;4.80;99.90
12926;DHT22;6529;50.566;9.774;2023-12-20T10:47:05;4.70;99.90
12926;DHT22;6529;50.566;9.774;2023-12-20T10:49:36;4.70;99.90
12926;DHT22;6529;50.566;9.774;2023-12-20T10:52:02;4.70;99.90
12926;DHT22;6529;50.566;9.774;2023-12-20T10:54:29;4.60;99.90
12926;DHT22;6529;50.566;9.774;2023-12-20T10:56:57;4.70;99.90
12926;DHT22;6529;50.566;9.774;2023-12-20T10:59:24;4.70;99.90
12926;DHT22;6529;50.566;9.774;2023-12-20T11:01:50;4.60;99.90
12926;DHT22;6529;50.566;9.774;2023-12-20T11:04:25;4.60;99.90
12926;DHT22;6529;50.566;9.774;2023-12-20T11:06:58;4.60;99.90
12926;DHT22;6529;50.566;9.774;2023-12-20T11:09:33;4.70;99.90
12926;DHT22;6529;50.566;9.774;2023-12-20T11:12:25;4.70;99.90
12926;DHT22;6529;50.566;9.774;2023-12-20T11:14:55;4.70;99.90
12926;DHT22;6529;50.566;9.774;2023-12-20T11:17:22;4.80;99.90
12926;DHT22;6529;50.566;9.774;2023-12-20T11:22:18;4.80;99.90
12926;DHT22;6529;50.566;9.774;2023-12-20T11:24:44;4.80;99.90
12926;DHT22;6529;50.566;9.774;2023-12-20T11:27:12;4.80;99.90
12926;DHT22;6529;50.566;9.774;2023-12-20T11:29:38;4.80;99.90
12926;DHT22;6529;50.566;9.774;2023-12-20T11:34:51;4.80;99.90
12926;DHT22;6529;50.566;9.774;2023-12-20T11:37:20;4.70;99.90
12926;DHT22;6529;50.566;9.774;2023-12-20T11:39:51;4.70;99.90
12926;DHT22;6529;50.566;9.774;2023-12-20T11:42:19;4.70;99.90
12926;DHT22;6529;50.566;9.774;2023-12-20T11:44:45;4.70;99.90
12926;DHT22;6529;50.566;9.774;2023-12-20T11:47:12;4.70;99.90
12926;DHT22;6529;50.566;9.774;2023-12-20T11:49:39;4.70;99.90
12926;DHT22;6529;50.566;9.774;2023-12-20T11:52:04;4.70;99.90
12926;DHT22;6529;50.566;9.774;2023-12-20T11:54:30;4.70;99.90
12926;DHT22;6529;50.566;9.774;2023-12-20T11:56:56;4.70;99.90
12926;DHT22;6529;50.566;9.774;2023-12-20T11:59:21;4.70;99.90
12926;DHT22;6529;50.566;9.774;2023-12-20T12:01:48;4.70;99.90
12926;DHT22;6529;50.566;9.774;2023-12-20T12:04:14;4.70;99.90
12926;DHT22;6529;50.566;9.774;2023-12-20T12:06:41;4.80;99.90
12926;DHT22;6529;50.566;9.774;2023-12-20T12:09:06;4.90;99.90
12926;DHT22;6529;50.566;9.774;2023-12-20T12:11:33;4.90;99.90
12926;DHT22;6529;50.566;9.774;2023-12-20T12:13:58;4.90;99.90
12926;DHT22;6529;50.566;9.774;2023-12-20T12:16:25;4.90;99.90
12926;DHT22;6529;50.566;9.774;2023-12-20T12:18:57;4.90;99.90
12926;DHT22;6529;50.566;9.774;2023-12-20T12:21:23;4.90;99.90
12926;DHT22;6529;50.566;9.774;2023-12-20T12:23:49;4.90;99.90
12926;DHT22;6529;50.566;9.774;2023-12-20T12:26:15;4.90;99.90
12926;DHT22;6529;50.566;9.774;2023-12-20T12:28:41;4.90;99.90
12926;DHT22;6529;50.566;9.774;2023-12-20T12:31:08;4.90;99.90
12926;DHT22;6529;50.566;9.774;2023-12-20T12:33:34;4.90;99.90
12926;DHT22;6529;50.566;9.774;2023-12-20T12:36:03;4.90;99.90
12926;DHT22;6529;50.566;9.774;2023-12-20T12:38:30;5.00;99.90
12926;DHT22;6529;50.566;9.774;2023-12-20T12:40:56;5.00;99.90
12926;DHT22;6529;50.566;9.774;2023-12-20T12:43:22;5.10;99.90
12926;DHT22;6529;50.566;9.774;2023-12-20T12:45:48;5.00;99.90
12926;DHT22;6529;50.566;9.774;2023-12-20T12:48:14;5.10;99.90
12926;DHT22;6529;50.566;9.774;2023-12-20T12:50:40;5.30;99.90
12926;DHT22;6529;50.566;9.774;2023-12-20T12:53:05;5.30;99.90
12926;DHT22;6529;50.566;9.774;2023-12-20T12:55:31;5.30;99.90
12926;DHT22;6529;50.566;9.774;2023-12-20T12:57:57;5.60;99.90
12926;DHT22;6529;50.566;9.774;2023-12-20T13:00:22;5.80;99.90
12926;DHT22;6529;50.566;9.774;2023-12-20T13:02:48;6.10;99.90
12926;DHT22;6529;50.566;9.774;2023-12-20T13:05:14;6.20;99.90
12926;DHT22;6529;50.566;9.774;2023-12-20T13:07:39;6.00;99.90
12926;DHT22;6529;50.566;9.774;2023-12-20T13:10:05;5.80;99.90
12926;DHT22;6529;50.566;9.774;2023-12-20T13:12:31;5.60;99.90
12926;DHT22;6529;50.566;9.774;2023-12-20T13:14:57;5.50;99.90
12926;DHT22;6529;50.566;9.774;2023-12-20T13:17:23;5.50;99.90
12926;DHT22;6529;50.566;9.774;2023-12-20T13:19:48;5.50;99.90
12926;DHT22;6529;50.566;9.774;2023-12-20T13:22:15;5.40;99.90
12926;DHT22;6529;50.566;9.774;2023-12-20T13:24:40;5.40;99.90
12926;DHT22;6529;50.566;9.774;2023-12-20T13:27:06;5.40;99.90
12926;DHT22;6529;50.566;9.774;2023-12-20T13:29:31;5.40;99.90
12926;DHT22;6529;50.566;9.774;2023-12-20T13:31:57;5.40;99.90
12926;DHT22;6529;50.566;9.774;2023-12-20T13:34:23;5.30;99.90
12926;DHT22;6529;50.566;9.774;2023-12-20T13:36:49;5.40;99.90
12926;DHT22;6529;50.566;9.774;2023-12-20T13:39:16;5.30;99.90
12926;DHT22;6529;50.566;9.774;2023-12-20T13:41:42;5.40;99.90
12926;DHT22;6529;50.566;9.774;2023-12-20T13:44:08;5.50;99.90
12926;DHT22;6529;50.566;9.774;2023-12-20T13:46:33;5.70;99.90
12926;DHT22;6529;50.566;9.774;2023-12-20T13:48:59;5.60;99.90
12926;DHT22;6529;50.566;9.774;2023-12-20T13:51:25;5.60;99.90
12926;DHT22;6529;50.566;9.774;2023-12-20T13:53:50;5.60;99.90
12926;DHT22;6529;50.566;9.774;2023-12-20T13:56:16;5.50;99.90
12926;DHT22;6529;50.566;9.774;2023-12-20T13:58:42;5.40;99.90
12926;DHT22;6529;50.566;9.774;2023-12-20T14:01:10;5.30;99.90
12926;DHT22;6529;50.566;9.774;2023-12-20T14:03:37;5.30;99.90
12926;DHT22;6529;50.566;9.774;2023-12-20T14:06:02;5.30;99.90
12926;DHT22;6529;50.566;9.774;2023-12-20T14:08:29;5.30;99.90
12926;DHT22;6529;50.566;9.774;2023-12-20T14:10:54;5.30;99.90
12926;DHT22;6529;50.566;9.774;2023-12-20T14:13:20;5.30;99.90
12926;DHT22;6529;50.566;9.774;2023-12-20T14:15:46;5.30;99.90
12926;DHT22;6529;50.566;9.774;2023-12-20T14:18:12;5.40;99.90
12926;DHT22;6529;50.566;9.774;2023-12-20T14:20:40;5.30;99.90
12926;DHT22;6529;50.566;9.774;2023-12-20T14:23:08;5.30;99.90
12926;DHT22;6529;50.566;9.774;2023-12-20T14:25:37;5.20;99.90
12926;DHT22;6529;50.566;9.774;2023-12-20T14:28:04;5.20;99.90
12926;DHT22;6529;50.566;9.774;2023-12-20T14:30:29;5.20;99.90
12926;DHT22;6529;50.566;9.774;2023-12-20T14:32:55;5.20;99.90
12926;DHT22;6529;50.566;9.774;2023-12-20T14:35:20;5.20;99.90
12926;DHT22;6529;50.566;9.774;2023-12-20T14:37:46;5.20;99.90
12926;DHT22;6529;50.566;9.774;2023-12-20T14:40:12;5.20;99.90
12926;DHT22;6529;50.566;9.774;2023-12-20T14:42:45;5.20;99.90
12926;DHT22;6529;50.566;9.774;2023-12-20T14:45:10;5.20;99.90
12926;DHT22;6529;50.566;9.774;2023-12-20T14:47:36;5.20;99.90
12926;DHT22;6529;50.566;9.774;2023-12-20T14:50:06;5.20;99.90
12926;DHT22;6529;50.566;9.774;2023-12-20T14:52:32;5.20;99.90
12926;DHT22;6529;50.566;9.774;2023-12-20T14:54:59;5.10;99.90
12926;DHT22;6529;50.566;9.774;2023-12-20T14:57:25;5.10;99.90
12926;DHT22;6529;50.566;9.774;2023-12-20T14:59:51;5.10;99.90
12926;DHT22;6529;50.566;9.774;2023-12-20T15:02:17;5.10;99.90
12926;DHT22;6529;50.566;9.774;2023-12-20T15:04:43;5.10;99.90
12926;DHT22;6529;50.566;9.774;2023-12-20T15:07:08;5.10;99.90
12926;DHT22;6529;50.566;9.774;2023-12-20T15:09:34;5.00;99.90
12926;DHT22;6529;50.566;9.774;2023-12-20T15:11:59;5.10;99.90
12926;DHT22;6529;50.566;9.774;2023-12-20T15:14:26;5.10;99.90
12926;DHT22;6529;50.566;9.774;2023-12-20T15:16:51;5.10;99.90
12926;DHT22;6529;50.566;9.774;2023-12-20T15:19:17;5.10;99.90
12926;DHT22;6529;50.566;9.774;2023-12-20T15:21:43;5.10;99.90
12926;DHT22;6529;50.566;9.774;2023-12-20T15:24:09;5.10;99.90
12926;DHT22;6529;50.566;9.774;2023-12-20T15:26:44;5.10;99.90
12926;DHT22;6529;50.566;9.774;2023-12-20T15:29:11;5.10;99.90
12926;DHT22;6529;50.566;9.774;2023-12-20T15:31:44;5.10;99.90
12926;DHT22;6529;50.566;9.774;2023-12-20T15:34:10;5.10;99.90
12926;DHT22;6529;50.566;9.774;2023-12-20T15:36:36;5.10;99.90
12926;DHT22;6529;50.566;9.774;2023-12-20T15:39:02;5.10;99.90
12926;DHT22;6529;50.566;9.774;2023-12-20T15:41:28;5.10;99.90
12926;DHT22;6529;50.566;9.774;2023-12-20T15:43:54;5.00;99.90
12926;DHT22;6529;50.566;9.774;2023-12-20T15:46:21;5.00;99.90
12926;DHT22;6529;50.566;9.774;2023-12-20T15:48:46;5.00;99.90
12926;DHT22;6529;50.566;9.774;2023-12-20T15:51:13;5.00;99.90
12926;DHT22;6529;50.566;9.774;2023-12-20T15:53:39;5.10;99.90
12926;DHT22;6529;50.566;9.774;2023-12-20T15:56:05;5.00;99.90
12926;DHT22;6529;50.566;9.774;2023-12-20T15:58:30;5.10;99.90
12926;DHT22;6529;50.566;9.774;2023-12-20T16:00:56;5.10;99.90